createdAt,value
2018-05-09T00:00:11.921Z,47.9
2018-05-09T00:01:02.176Z,47.9
2018-05-09T00:01:51.964Z,47.8
2018-05-09T00:02:42.857Z,47.8
2018-05-09T00:03:32.692Z,47.8
2018-05-09T00:04:22.718Z,47.8
2018-05-09T00:05:13.032Z,47.8
2018-05-09T00:06:03.112Z,47.8
2018-05-09T00:06:53.143Z,47.8
2018-05-09T00:07:42.938Z,47.8
2018-05-09T00:08:33.295Z,47.8
2018-05-09T00:09:22.523Z,47.8
2018-05-09T00:10:13.428Z,47.7
2018-05-09T00:11:03.221Z,47.7
2018-05-09T00:11:53.777Z,47.7
2018-05-09T00:12:43.038Z,47.7
2018-05-09T00:13:33.680Z,47.6
2018-05-09T00:14:23.747Z,47.6
2018-05-09T00:15:13.295Z,47.6
2018-05-09T00:16:03.593Z,47.6
2018-05-09T00:16:53.655Z,47.6
2018-05-09T00:17:43.993Z,47.6
2018-05-09T00:18:33.787Z,47.6
2018-05-09T00:19:23.290Z,47.6
2018-05-09T00:20:13.927Z,47.6
2018-05-09T00:21:04.253Z,47.5
2018-05-09T00:21:54.042Z,47.5
2018-05-09T00:22:44.409Z,47.5
2018-05-09T00:23:34.491Z,47.5
2018-05-09T00:24:24.256Z,47.4
2018-05-09T00:25:14.391Z,47.4
2018-05-09T00:26:03.823Z,47.4
2018-05-09T00:26:54.447Z,47.4
2018-05-09T00:27:43.935Z,47.4
2018-05-09T00:28:34.580Z,47.4
2018-05-09T00:29:24.093Z,47.3
2018-05-09T00:30:14.705Z,47.3
2018-05-09T00:31:04.754Z,47.3
2018-05-09T00:31:54.555Z,47.3
2018-05-09T00:32:44.660Z,47.3
2018-05-09T00:33:34.953Z,47.3
2018-05-09T00:34:25.259Z,47.3
2018-05-09T00:35:15.348Z,47.3
2018-05-09T00:36:04.867Z,47.3
2018-05-09T00:36:55.193Z,47.2
2018-05-09T00:37:44.987Z,47.2
2018-05-09T00:38:34.804Z,47.2
2018-05-09T00:39:25.407Z,47.2
2018-05-09T00:40:15.733Z,47.1
2018-05-09T00:41:05.552Z,47.1
2018-05-09T00:41:55.594Z,47.1
2018-05-09T00:42:45.653Z,47.1
2018-05-09T00:43:35.730Z,47.1
2018-05-09T00:44:26.109Z,47.1
2018-05-09T00:45:15.286Z,47.1
2018-05-09T00:46:06.276Z,47.1
2018-05-09T00:46:55.974Z,47.1
2018-05-09T00:47:46.330Z,47.1
2018-05-09T00:48:36.377Z,47
2018-05-09T00:49:26.480Z,47
2018-05-09T00:50:16.908Z,47
2018-05-09T00:51:06.024Z,46.9
2018-05-09T00:51:56.101Z,46.9
2018-05-09T00:52:46.823Z,46.9
2018-05-09T00:53:36.758Z,46.9
2018-05-09T00:54:26.566Z,46.9
2018-05-09T00:55:16.618Z,46.9
2018-05-09T00:56:06.679Z,46.9
2018-05-09T00:56:57.137Z,46.9
2018-05-09T00:57:46.887Z,46.9
2018-05-09T00:58:36.624Z,46.9
2018-05-09T00:59:26.668Z,46.8
2018-05-09T01:00:17.289Z,46.8
2018-05-09T01:01:07.041Z,46.8
2018-05-09T01:01:57.415Z,46.8
2018-05-09T01:02:47.205Z,46.8
2018-05-09T01:03:37.273Z,46.8
2018-05-09T01:04:27.304Z,46.8
2018-05-09T01:05:17.365Z,46.8
2018-05-09T01:06:07.715Z,46.8
2018-05-09T01:06:57.775Z,46.7
2018-05-09T01:07:47.311Z,46.7
2018-05-09T01:08:37.348Z,46.7
2018-05-09T01:09:28.002Z,46.7
2018-05-09T01:10:17.732Z,46.7
2018-05-09T01:11:08.094Z,46.6
2018-05-09T01:11:57.880Z,46.6
2018-05-09T01:12:47.658Z,46.6
2018-05-09T01:13:38.008Z,46.6
2018-05-09T01:14:28.099Z,46.6
2018-05-09T01:15:17.877Z,46.6
2018-05-09T01:16:08.490Z,46.6
2018-05-09T01:16:58.256Z,46.6
2018-05-09T01:17:48.630Z,46.5
2018-05-09T01:18:38.407Z,46.6
2018-05-09T01:19:28.505Z,46.5
2018-05-09T01:20:18.283Z,46.5
2018-05-09T01:21:08.875Z,46.5
2018-05-09T01:21:58.672Z,46.5
2018-05-09T01:22:48.432Z,46.5
2018-05-09T01:23:39.058Z,46.4
2018-05-09T01:24:28.631Z,46.4
2018-05-09T01:25:18.900Z,46.4
2018-05-09T01:26:08.772Z,46.4
2018-05-09T01:26:59.356Z,46.4
2018-05-09T01:27:49.114Z,46.4
2018-05-09T01:28:39.425Z,46.4
2018-05-09T01:29:28.724Z,46.4
2018-05-09T01:30:19.567Z,46.4
2018-05-09T01:31:09.339Z,46.3
2018-05-09T01:31:59.486Z,46.3
2018-05-09T01:32:49.769Z,46.3
2018-05-09T01:33:39.836Z,46.3
2018-05-09T01:34:29.964Z,46.3
2018-05-09T01:35:19.723Z,46.3
2018-05-09T01:36:09.466Z,46.3
2018-05-09T01:37:00.104Z,46.3
2018-05-09T01:37:49.889Z,46.3
2018-05-09T01:38:39.945Z,46.2
2018-05-09T01:39:30.048Z,46.2
2018-05-09T01:40:20.351Z,46.2
2018-05-09T01:41:09.578Z,46.2
2018-05-09T01:42:00.276Z,46.2
2018-05-09T01:42:50.286Z,46.2
2018-05-09T01:43:40.608Z,46.1
2018-05-09T01:44:29.551Z,46.1
2018-05-09T01:45:20.181Z,46.1
2018-05-09T01:46:10.536Z,46.1
2018-05-09T01:47:00.854Z,46.1
2018-05-09T01:47:50.941Z,46.1
2018-05-09T01:48:40.751Z,46.1
2018-05-09T01:49:30.497Z,46.1
2018-05-09T01:50:20.009Z,46.1
2018-05-09T01:51:10.341Z,46.1
2018-05-09T01:52:00.989Z,46
2018-05-09T01:52:51.095Z,46
2018-05-09T01:53:41.151Z,46
2018-05-09T01:54:31.441Z,46
2018-05-09T01:55:21.024Z,45.9
2018-05-09T01:56:11.570Z,45.9
2018-05-09T01:57:01.371Z,45.9
2018-05-09T01:57:51.233Z,45.9
2018-05-09T01:58:41.160Z,45.9
2018-05-09T01:59:31.572Z,45.9
2018-05-09T02:00:21.863Z,46.1
2018-05-09T02:01:11.928Z,46.4
2018-05-09T02:02:02.042Z,46.7
2018-05-09T02:02:52.075Z,47.1
2018-05-09T02:03:42.125Z,47.3
2018-05-09T02:04:31.904Z,47.6
2018-05-09T02:05:21.700Z,47.9
2018-05-09T02:06:13.541Z,48.1
2018-05-09T02:07:02.143Z,48.3
2018-05-09T02:07:52.434Z,48.5
2018-05-09T02:08:42.242Z,48.6
2018-05-09T02:09:32.293Z,48.8
2018-05-09T02:10:22.748Z,48.8
2018-05-09T02:11:12.707Z,48.9
2018-05-09T02:12:02.497Z,48.9
2018-05-09T02:12:52.848Z,49
2018-05-09T02:13:42.644Z,49
2018-05-09T02:14:32.421Z,49.1
2018-05-09T02:15:22.764Z,49.1
2018-05-09T02:16:12.869Z,49.1
2018-05-09T02:17:03.175Z,49.1
2018-05-09T02:17:52.968Z,49.1
2018-05-09T02:18:42.723Z,49.2
2018-05-09T02:19:33.331Z,49.2
2018-05-09T02:20:22.874Z,49.3
2018-05-09T02:21:13.473Z,49.3
2018-05-09T02:22:03.560Z,49.4
2018-05-09T02:22:53.312Z,49.4
2018-05-09T02:23:43.422Z,49.5
2018-05-09T02:24:33.728Z,49.5
2018-05-09T02:25:23.552Z,49.6
2018-05-09T02:26:13.867Z,49.6
2018-05-09T02:27:03.659Z,49.6
2018-05-09T02:27:54.006Z,49.6
2018-05-09T02:28:44.046Z,49.6
2018-05-09T02:29:33.569Z,49.6
2018-05-09T02:30:23.628Z,49.6
2018-05-09T02:31:14.363Z,49.6
2018-05-09T02:32:03.783Z,49.6
2018-05-09T02:32:53.842Z,49.6
2018-05-09T02:33:43.931Z,49.6
2018-05-09T04:37:20.779Z,27.3
2018-05-09T04:38:10.868Z,27.3
2018-05-09T04:39:00.010Z,27.2
2018-05-09T04:39:50.926Z,27.1
2018-05-09T04:40:41.014Z,27.1
2018-05-09T04:41:30.721Z,27
2018-05-09T04:42:20.833Z,26.9
2018-05-09T04:43:11.134Z,26.8
2018-05-09T04:44:00.632Z,26.8
2018-05-09T04:44:51.016Z,26.7
2018-05-09T04:45:41.122Z,26.6
2018-05-09T04:46:31.168Z,26.6
2018-05-09T04:47:21.538Z,26.5
2018-05-09T04:48:11.503Z,26.4
2018-05-09T04:49:01.561Z,26.3
2018-05-09T04:49:51.632Z,26.3
2018-05-09T04:50:41.688Z,26.2
2018-05-09T04:51:31.779Z,26.1
2018-05-09T04:52:21.820Z,26.1
2018-05-09T04:53:11.600Z,26
2018-05-09T04:54:01.934Z,25.9
2018-05-09T04:54:51.440Z,25.9
2018-05-09T04:55:43.930Z,25.8
2018-05-09T04:56:31.864Z,25.8
2018-05-09T04:57:21.625Z,25.8
2018-05-09T04:58:11.976Z,25.8
2018-05-09T04:59:01.792Z,25.8
2018-05-09T04:59:52.375Z,25.7
2018-05-09T05:00:42.463Z,25.7
2018-05-09T05:01:32.510Z,25.6
2018-05-09T05:02:22.312Z,25.6
2018-05-09T05:03:12.355Z,25.6
2018-05-09T05:04:02.700Z,25.6
2018-05-09T05:04:52.770Z,25.6
2018-05-09T05:05:42.274Z,25.6
2018-05-09T05:06:32.862Z,25.5
2018-05-09T05:07:22.664Z,25.5
2018-05-09T05:08:13.026Z,25.5
2018-05-09T05:09:02.785Z,25.5
2018-05-09T05:09:53.081Z,25.4
2018-05-09T05:10:42.869Z,25.4
2018-05-09T05:11:32.946Z,25.4
2018-05-09T05:12:22.232Z,25.4
2018-05-09T05:13:13.344Z,25.4
2018-05-09T05:14:03.165Z,25.4
2018-05-09T05:14:53.188Z,25.4
2018-05-09T05:15:43.990Z,25.4
2018-05-09T05:16:33.576Z,25.4
2018-05-09T05:17:23.170Z,25.4
2018-05-09T05:18:13.189Z,25.4
2018-05-09T05:19:02.957Z,25.3
2018-05-09T05:19:53.931Z,25.4
2018-05-09T05:20:43.622Z,25.3
2018-05-09T05:21:33.672Z,25.3
2018-05-09T05:22:23.468Z,25.3
2018-05-09T05:23:13.831Z,25.3
2018-05-09T05:24:03.628Z,25.3
2018-05-09T05:24:54.207Z,25.3
2018-05-09T05:25:44.336Z,25.3
2018-05-09T05:26:33.906Z,25.2
2018-05-09T05:27:24.167Z,25.2
2018-05-09T05:28:13.923Z,25.2
2018-05-09T05:29:04.287Z,25.2
2018-05-09T05:29:54.690Z,25.2
2018-05-09T05:30:44.665Z,25.1
2018-05-09T05:31:34.758Z,25.1
2018-05-09T05:32:24.508Z,25.1
2018-05-09T05:33:14.590Z,25.1
2018-05-09T05:34:04.592Z,25.1
2018-05-09T05:34:54.122Z,25.1
2018-05-09T05:35:44.726Z,25.1
2018-05-09T05:36:34.868Z,34.1
2018-05-09T05:37:25.134Z,40.4
2018-05-09T05:38:14.734Z,38.7
2018-05-09T05:39:05.270Z,36.8
2018-05-09T05:39:55.333Z,35.6
2018-05-09T05:40:45.391Z,34.7
2018-05-09T05:41:34.968Z,33.9
2018-05-09T05:42:24.965Z,33.3
2018-05-09T05:43:15.305Z,38.6
2018-05-09T05:44:05.668Z,42.7
2018-05-09T05:44:55.322Z,41.8
2018-05-09T05:45:45.523Z,38.6
2018-05-09T05:46:35.628Z,36.6
2018-05-09T05:47:25.342Z,35.4
2018-05-09T05:48:15.990Z,34.5
2018-05-09T05:49:04.967Z,37.7
2018-05-09T05:49:56.085Z,42.4
2018-05-09T05:50:46.185Z,41.5
2018-05-09T05:51:36.244Z,38.2
2018-05-09T05:52:25.442Z,35.2
2018-05-09T05:53:15.500Z,39.9
2018-05-09T05:54:06.219Z,42.9
2018-05-09T05:54:56.214Z,43.8
2018-05-09T05:55:46.537Z,42.6
2018-05-09T05:56:36.277Z,39.8
2018-05-09T05:57:26.346Z,42.1
2018-05-09T05:58:16.732Z,44.2
2018-05-09T05:59:06.769Z,45.1
2018-05-09T05:59:56.312Z,45.6
2018-05-09T06:00:46.895Z,45.8
2018-05-09T06:01:36.747Z,45.9
2018-05-09T06:02:26.752Z,46.1
2018-05-09T06:03:16.327Z,46.3
2018-05-09T06:04:06.860Z,46.4
2018-05-09T06:04:56.933Z,46.6
2018-05-09T06:05:47.028Z,46.8
2018-05-09T06:06:36.801Z,46.9
2018-05-09T06:07:26.916Z,47
2018-05-09T06:08:17.465Z,47.1
2018-05-09T06:09:06.770Z,47.3
2018-05-09T06:09:57.393Z,47.4
2018-05-09T06:10:47.102Z,47.5
2018-05-09T06:11:37.172Z,47.6
2018-05-09T06:12:27.810Z,47.8
2018-05-09T06:13:17.561Z,47.9
2018-05-09T06:14:07.636Z,48
2018-05-09T06:14:57.096Z,48.1
2018-05-09T06:15:47.466Z,48.2
2018-05-09T06:16:37.894Z,48.3
2018-05-09T06:17:27.924Z,48.4
2018-05-09T06:18:18.203Z,48.5
2018-05-09T06:19:08.017Z,48.6
2018-05-09T06:19:58.033Z,48.7
2018-05-09T06:20:48.154Z,48.8
2018-05-09T06:21:38.201Z,48.9
2018-05-09T06:22:27.990Z,49.1
2018-05-09T06:23:17.814Z,49.2
2018-05-09T06:24:09.443Z,49.3
2018-05-09T06:24:58.499Z,49.4
2018-05-09T06:25:48.801Z,49.5
2018-05-09T06:26:38.303Z,49.6
2018-05-09T06:27:28.654Z,49.6
2018-05-09T06:28:18.725Z,49.6
2018-05-09T06:29:08.802Z,49.8
2018-05-09T06:29:58.860Z,49.9
2018-05-09T06:30:49.325Z,50
2018-05-09T06:31:38.676Z,50.1
2018-05-09T06:32:29.025Z,50.2
2018-05-09T06:33:19.112Z,50.3
2018-05-09T06:34:09.072Z,50.4
2018-05-09T06:34:59.241Z,50.4
2018-05-09T06:35:49.019Z,50.6
2018-05-09T06:36:39.092Z,50.7
2018-05-09T06:37:29.701Z,50.8
2018-05-09T06:38:19.762Z,50.9
2018-05-09T06:39:08.755Z,51
2018-05-09T06:39:59.950Z,51.1
2018-05-09T06:40:49.759Z,51.2
2018-05-09T06:41:40.149Z,51.3
2018-05-09T06:42:29.757Z,51.4
2018-05-09T06:43:19.861Z,51.5
2018-05-09T06:44:08.791Z,51.6
2018-05-09T06:44:59.999Z,51.7
2018-05-09T06:45:49.757Z,51.8
2018-05-09T06:47:30.178Z,52
2018-05-09T06:48:20.546Z,52.1
2018-05-09T06:49:10.299Z,52.2
2018-05-09T06:50:01.038Z,52.3
2018-05-09T06:50:50.721Z,52.4
2018-05-09T06:51:40.239Z,52.5
2018-05-09T06:52:30.285Z,52.6
2018-05-09T06:53:20.091Z,52.6
2018-05-09T06:54:09.377Z,52.7
2018-05-09T06:55:00.794Z,52.8
2018-05-09T06:55:50.331Z,52.9
2018-05-09T06:56:40.591Z,52.9
2018-05-09T06:57:30.671Z,53
2018-05-09T06:58:20.766Z,53.1
2018-05-09T06:59:11.608Z,53.3
2018-05-09T07:00:01.498Z,53.4
2018-05-09T07:00:50.996Z,53.5
2018-05-09T07:01:41.334Z,53.6
2018-05-09T07:02:31.616Z,53.8
2018-05-09T07:03:21.469Z,53.8
2018-05-09T07:04:11.773Z,53.9
2018-05-09T07:05:01.541Z,54.1
2018-05-09T07:05:51.876Z,54.1
2018-05-09T07:06:45.788Z,54.2
2018-05-09T07:07:31.439Z,54.3
2018-05-09T07:08:21.796Z,54.4
2018-05-09T07:09:11.832Z,54.5
2018-05-09T07:10:01.606Z,54.6
2018-05-09T07:10:52.369Z,54.7
2018-05-09T07:11:41.501Z,54.8
2018-05-09T07:12:32.381Z,54.8
2018-05-09T07:13:22.167Z,55
2018-05-09T07:14:12.339Z,55.1
2018-05-09T07:15:02.535Z,55.3
2018-05-09T07:15:52.080Z,55.3
2018-05-09T07:16:42.389Z,55.4
2018-05-09T07:17:32.461Z,55.6
2018-05-09T07:18:22.240Z,55.7
2018-05-09T07:19:12.649Z,55.8
2018-05-09T07:20:02.379Z,55.9
2018-05-09T07:20:53.051Z,56
2018-05-09T07:21:42.503Z,56.1
2018-05-09T07:22:32.873Z,56.3
2018-05-09T07:23:23.186Z,56.4
2018-05-09T07:24:13.004Z,56.5
2018-05-09T07:25:03.046Z,56.6
2018-05-09T07:25:52.831Z,56.7
2018-05-09T07:26:43.440Z,56.8
2018-05-09T07:27:33.228Z,56.9
2018-05-09T07:28:23.308Z,57.1
2018-05-09T07:29:13.099Z,57.2
2018-05-09T07:30:03.451Z,57.3
2018-05-09T07:30:53.776Z,57.4
2018-05-09T07:31:43.516Z,57.5
2018-05-09T07:32:33.887Z,57.6
2018-05-09T07:34:14.037Z,57.9
2018-05-09T07:35:04.106Z,58
2018-05-09T07:35:53.490Z,58.1
2018-05-09T07:36:43.966Z,58.3
2018-05-09T07:37:34.272Z,58.4
2018-05-09T07:38:23.499Z,58.5
2018-05-09T07:39:13.363Z,58.6
2018-05-09T07:40:04.481Z,58.8
2018-05-09T07:40:54.620Z,58.9
2018-05-09T07:41:43.843Z,59.1
2018-05-09T07:42:34.371Z,59.2
2018-05-09T07:43:24.715Z,59.3
2018-05-09T07:44:14.328Z,59.4
2018-05-09T07:45:04.604Z,59.6
2018-05-09T07:45:54.659Z,59.7
2018-05-09T07:46:44.982Z,59.9
2018-05-09T07:47:35.413Z,59.9
2018-05-09T07:48:24.299Z,60.1
2018-05-09T07:49:14.332Z,60.2
2018-05-09T07:50:04.674Z,60.3
2018-05-09T07:50:55.095Z,60.4
2018-05-09T07:51:44.804Z,60.6
2018-05-09T07:52:35.154Z,60.7
2018-05-09T07:53:25.014Z,60.8
2018-05-09T07:54:15.091Z,60.9
2018-05-09T07:55:04.897Z,61
2018-05-09T07:55:55.646Z,61.1
2018-05-09T07:56:45.672Z,61.3
2018-05-09T07:57:34.853Z,61.4
2018-05-09T07:58:25.890Z,61.5
2018-05-09T07:59:15.935Z,61.6
2018-05-09T08:00:06.033Z,61.7
2018-05-09T08:00:55.480Z,61.8
2018-05-09T08:01:45.858Z,61.9
2018-05-09T08:02:35.931Z,62
2018-05-09T08:03:25.350Z,62.1
2018-05-09T08:04:15.819Z,62.1
2018-05-09T08:05:05.902Z,62.2
2018-05-09T08:05:55.912Z,62.3
2018-05-09T08:06:45.762Z,62.4
2018-05-09T08:07:36.297Z,62.5
2018-05-09T08:08:26.666Z,62.6
2018-05-09T08:09:16.685Z,62.7
2018-05-09T08:10:06.544Z,62.8
2018-05-09T08:10:56.569Z,62.9
2018-05-09T08:11:46.915Z,63
2018-05-09T08:12:35.932Z,62.9
2018-05-09T08:13:26.217Z,63.1
2018-05-09T08:14:16.064Z,63.3
2018-05-09T08:15:06.418Z,63.3
2018-05-09T08:15:56.188Z,63.4
2018-05-09T08:16:46.665Z,63.4
2018-05-09T08:17:37.104Z,63.6
2018-05-09T08:18:26.663Z,63.5
2018-05-09T08:19:17.510Z,63.7
2018-05-09T08:20:06.793Z,63.8
2018-05-09T08:20:57.606Z,63.9
2018-05-09T08:21:47.685Z,63.9
2018-05-09T08:22:37.170Z,64
2018-05-09T08:23:27.848Z,64.1
2018-05-09T08:24:17.868Z,64.1
2018-05-09T08:25:08.229Z,64.2
2018-05-09T08:25:57.991Z,64.3
2018-05-09T08:26:46.728Z,64.4
2018-05-09T08:27:37.645Z,64.4
2018-05-09T08:28:27.241Z,64.6
2018-05-09T08:29:18.251Z,64.6
2018-05-09T08:30:08.452Z,64.7
2018-05-09T08:30:57.621Z,64.8
2018-05-09T08:31:47.919Z,64.8
2018-05-09T08:32:38.574Z,64.9
2018-05-09T08:33:28.320Z,64.9
2018-05-09T08:34:18.405Z,65
2018-05-09T08:35:08.744Z,65.1
2018-05-09T08:35:58.787Z,65.2
2018-05-09T08:36:49.267Z,65.3
2018-05-09T08:37:38.685Z,65.4
2018-05-09T08:38:28.648Z,65.4
2018-05-09T08:39:18.769Z,65.4
2018-05-09T08:40:09.163Z,65.6
2018-05-09T08:40:59.198Z,65.7
2018-05-09T08:41:48.962Z,65.8
2018-05-09T08:42:39.062Z,65.8
2018-05-09T08:43:30.171Z,65.9
2018-05-09T08:44:18.864Z,65.9
2018-05-09T08:45:09.244Z,66.1
2018-05-09T08:45:58.439Z,66.1
2018-05-09T08:46:49.309Z,66.2
2018-05-09T08:47:39.376Z,66.3
2018-05-09T08:48:29.495Z,66.3
2018-05-09T08:49:20.397Z,66.4
2018-05-09T08:50:09.869Z,66.5
2018-05-09T08:50:59.915Z,66.6
2018-05-09T08:51:49.729Z,66.7
2018-05-09T08:52:40.057Z,66.8
2018-05-09T08:53:30.131Z,66.9
2018-05-09T08:54:19.935Z,66.9
2018-05-09T08:55:09.971Z,67
2018-05-09T08:56:00.043Z,67.1
2018-05-09T08:56:50.128Z,67.1
2018-05-09T08:57:39.911Z,67.2
2018-05-09T08:58:30.561Z,67.3
2018-05-09T08:59:20.303Z,67.4
2018-05-09T09:00:09.828Z,67.4
2018-05-09T09:01:00.458Z,67.4
2018-05-09T09:01:49.229Z,67.5
2018-05-09T09:02:39.995Z,67.6
2018-05-09T09:03:30.905Z,67.6
2018-05-09T09:04:21.141Z,67.7
2018-05-09T09:05:10.207Z,67.8
2018-05-09T09:06:01.118Z,67.8
2018-05-09T09:06:50.888Z,67.8
2018-05-09T09:07:41.238Z,67.9
2018-05-09T09:08:31.261Z,68.1
2018-05-09T09:09:20.566Z,68.2
2018-05-09T09:10:10.674Z,68.3
2018-05-09T09:11:01.006Z,68.3
2018-05-09T09:11:51.261Z,68.3
2018-05-09T09:12:41.337Z,68.4
2018-05-09T09:13:31.382Z,68.6
2018-05-09T09:14:21.519Z,68.7
2018-05-09T09:15:11.780Z,68.7
2018-05-09T09:16:01.348Z,68.8
2018-05-09T09:16:51.629Z,68.9
2018-05-09T09:17:41.693Z,68.9
2018-05-09T09:18:32.211Z,69
2018-05-09T09:19:21.576Z,69.1
2018-05-09T09:20:12.288Z,69.3
2018-05-09T09:21:02.212Z,69.3
2018-05-09T09:21:52.414Z,69.4
2018-05-09T09:22:42.118Z,69.4
2018-05-09T09:23:31.895Z,69.5
2018-05-09T09:24:21.418Z,69.4
2018-05-09T09:25:11.463Z,69.5
2018-05-09T09:26:02.344Z,69.6
2018-05-09T09:26:52.695Z,69.4
2018-05-09T09:27:42.225Z,69.3
2018-05-09T09:28:32.540Z,69.3
2018-05-09T09:29:22.771Z,69.3
2018-05-09T09:30:13.027Z,69.4
2018-05-09T09:31:02.803Z,69.5
2018-05-09T09:31:52.827Z,69.6
2018-05-09T09:32:42.891Z,69.6
2018-05-09T09:33:32.972Z,69.8
2018-05-09T09:34:23.033Z,69.9
2018-05-09T09:35:12.545Z,69.9
2018-05-09T09:36:02.614Z,70.1
2018-05-09T09:36:53.231Z,70.1
2018-05-09T09:37:43.616Z,70.3
2018-05-09T09:38:33.357Z,70.4
2018-05-09T09:39:23.771Z,70.4
2018-05-09T09:40:13.804Z,70.5
2018-05-09T09:41:03.606Z,70.6
2018-05-09T09:41:53.988Z,70.7
2018-05-09T09:42:43.365Z,70.7
2018-05-09T09:43:33.988Z,70.8
2018-05-09T09:44:23.584Z,70.8
2018-05-09T09:45:13.823Z,70.9
2018-05-09T09:46:03.639Z,71.1
2018-05-09T09:46:54.238Z,71.1
2018-05-09T09:47:44.040Z,71.2
2018-05-09T09:48:34.108Z,71.3
2018-05-09T09:49:24.431Z,71.3
2018-05-09T09:50:14.490Z,71.4
2018-05-09T09:51:04.304Z,71.5
2018-05-09T09:51:54.072Z,71.6
2018-05-09T09:52:44.400Z,71.7
2018-05-09T09:53:34.786Z,71.8
2018-05-09T09:54:23.979Z,71.9
2018-05-09T09:55:14.640Z,71.9
2018-05-09T09:56:04.139Z,72
2018-05-09T09:56:55.013Z,72.1
2018-05-09T09:57:44.783Z,72.2
2018-05-09T09:58:34.943Z,72.3
2018-05-09T09:59:25.331Z,72.3
2018-05-09T10:00:14.711Z,72.4
2018-05-09T10:01:05.355Z,72.5
2018-05-09T10:01:55.383Z,72.6
2018-05-09T10:02:45.190Z,72.7
2018-05-09T10:03:35.281Z,72.8
2018-05-09T10:04:25.681Z,72.8
2018-05-09T10:05:15.679Z,72.9
2018-05-09T10:06:05.462Z,72.9
2018-05-09T10:06:55.767Z,73
2018-05-09T10:07:45.842Z,73.1
2018-05-09T10:08:35.649Z,73.2
2018-05-09T10:09:25.691Z,73.3
2018-05-09T10:10:15.764Z,73.3
2018-05-09T10:11:05.253Z,73.4
2018-05-09T10:11:55.614Z,73.4
2018-05-09T10:12:46.262Z,73.5
2018-05-09T10:13:36.316Z,73.6
2018-05-09T10:14:26.380Z,73.7
2018-05-09T10:15:15.861Z,73.8
2018-05-09T10:16:07.196Z,73.8
2018-05-09T10:16:56.264Z,73.9
2018-05-09T10:17:46.088Z,73.9
2018-05-09T10:18:36.678Z,74
2018-05-09T10:19:26.459Z,74.1
2018-05-09T10:20:16.818Z,74.1
2018-05-09T10:21:06.139Z,74.2
2018-05-09T10:21:56.963Z,74.3
2018-05-09T10:22:47.029Z,74.3
2018-05-09T10:23:36.766Z,73.8
2018-05-09T10:24:26.852Z,72.2
2018-05-09T10:25:16.716Z,70.4
2018-05-09T10:26:07.345Z,71.6
2018-05-09T10:26:56.827Z,73.1
2018-05-09T10:27:47.127Z,74.5
2018-05-09T10:28:37.176Z,75.1
2018-05-09T10:29:27.251Z,75.1
2018-05-09T10:30:17.027Z,74.9
2018-05-09T10:31:07.475Z,74.8
2018-05-09T10:31:57.576Z,74.8
2018-05-09T10:32:47.515Z,74.9
2018-05-09T10:33:37.327Z,75.1
2018-05-09T10:34:27.985Z,75.2
2018-05-09T10:35:17.482Z,75.2
2018-05-09T10:36:07.788Z,75.3
2018-05-09T10:36:57.085Z,75.3
2018-05-09T10:37:47.890Z,75.4
2018-05-09T10:38:38.230Z,75.4
2018-05-09T10:39:27.822Z,75.4
2018-05-09T10:40:18.363Z,75.6
2018-05-09T10:41:08.417Z,75.6
2018-05-09T10:41:58.520Z,75.6
2018-05-09T10:42:48.280Z,75.6
2018-05-09T10:43:38.607Z,75.7
2018-05-09T10:44:28.681Z,75.8
2018-05-09T10:45:18.804Z,75.8
2018-05-09T10:46:08.543Z,75.9
2018-05-09T10:46:58.612Z,75.9
2018-05-09T10:47:48.648Z,76
2018-05-09T10:48:38.742Z,76.1
2018-05-09T10:49:28.785Z,76.1
2018-05-09T10:50:19.136Z,76.2
2018-05-09T10:51:08.651Z,76.3
2018-05-09T10:51:58.973Z,76.3
2018-05-09T10:52:49.054Z,76.4
2018-05-09T10:53:39.414Z,76.4
2018-05-09T10:54:29.218Z,76.5
2018-05-09T10:55:19.487Z,76.6
2018-05-09T10:56:09.558Z,76.6
2018-05-09T10:56:59.364Z,76.7
2018-05-09T10:57:49.149Z,76.8
2018-05-09T10:58:39.490Z,76.8
2018-05-09T10:59:29.895Z,76.9
2018-05-09T11:00:19.615Z,76.9
2018-05-09T11:01:09.155Z,76.9
2018-05-09T11:01:59.760Z,77
2018-05-09T11:02:49.246Z,77.1
2018-05-09T11:03:39.903Z,77.1
2018-05-09T11:04:29.957Z,77.1
2018-05-09T11:05:20.025Z,77.1
2018-05-09T11:06:09.809Z,77.3
2018-05-09T11:06:59.881Z,77.3
2018-05-09T11:07:49.687Z,77.3
2018-05-09T11:08:39.993Z,77.4
2018-05-09T11:09:30.357Z,77.4
2018-05-09T11:10:20.425Z,77.4
2018-05-09T11:11:10.203Z,77.5
2018-05-09T11:12:00.813Z,77.6
2018-05-09T11:12:50.867Z,77.6
2018-05-09T11:13:40.938Z,77.6
2018-05-09T11:14:30.992Z,77.6
2018-05-09T11:15:21.067Z,77.7
2018-05-09T11:16:10.538Z,77.8
2018-05-09T11:17:00.885Z,77.8
2018-05-09T11:17:50.678Z,77.8
2018-05-09T11:18:40.751Z,77.8
2018-05-09T11:19:31.121Z,77.9
2018-05-09T11:20:20.888Z,77.9
2018-05-09T11:21:11.496Z,77.9
2018-05-09T11:22:01.356Z,78
2018-05-09T11:22:51.724Z,78
2018-05-09T11:23:41.491Z,78.1
2018-05-09T11:24:32.917Z,78.1
2018-05-09T11:25:21.264Z,78.2
2018-05-09T11:26:11.620Z,78.2
2018-05-09T11:27:01.685Z,78.3
2018-05-09T11:27:51.464Z,78.3
2018-05-09T11:28:41.605Z,78.3
2018-05-09T11:29:31.861Z,78.4
2018-05-09T11:30:21.673Z,78.4
2018-05-09T11:31:12.299Z,78.5
2018-05-09T11:32:01.868Z,78.6
2018-05-09T11:32:52.162Z,78.6
2018-05-09T11:33:42.213Z,78.6
2018-05-09T11:34:32.619Z,78.6
2018-05-09T11:35:22.589Z,78.7
2018-05-09T11:36:11.847Z,78.7
2018-05-09T11:37:02.463Z,78.7
2018-05-09T11:37:52.259Z,78.8
2018-05-09T11:38:42.841Z,78.8
2018-05-09T11:39:32.164Z,78.9
2018-05-09T11:40:22.711Z,78.9
2018-05-09T11:41:12.770Z,78.9
2018-05-09T11:42:03.151Z,78.9
2018-05-09T11:42:52.906Z,78.9
2018-05-09T11:43:43.265Z,79
2018-05-09T11:44:33.350Z,79.1
2018-05-09T11:45:23.124Z,79
2018-05-09T11:46:13.498Z,78.9
2018-05-09T11:47:02.695Z,78.8
2018-05-09T11:47:53.265Z,78.8
2018-05-09T11:48:43.069Z,78.8
2018-05-09T11:49:32.603Z,78.8
2018-05-09T11:50:23.773Z,78.9
2018-05-09T11:51:13.570Z,78.9
2018-05-09T11:52:03.652Z,78.9
2018-05-09T11:52:53.207Z,78.9
2018-05-09T11:53:44.063Z,78.9
2018-05-09T11:54:33.802Z,78.9
2018-05-09T11:55:23.344Z,79
2018-05-09T11:56:13.665Z,78.9
2018-05-09T11:57:04.264Z,78.9
2018-05-09T11:57:54.099Z,79
2018-05-09T11:58:44.389Z,79
2018-05-09T11:59:34.466Z,79
2018-05-09T12:00:24.533Z,79.1
2018-05-09T12:01:14.612Z,79.1
2018-05-09T12:02:04.439Z,79.1
2018-05-09T12:02:53.906Z,79.1
2018-05-09T12:03:44.556Z,79.1
2018-05-09T12:04:34.570Z,79.1
2018-05-09T12:05:24.376Z,79.2
2018-05-09T12:06:14.840Z,79.2
2018-05-09T12:07:05.093Z,79.3
2018-05-09T12:07:54.598Z,79.3
2018-05-09T12:08:44.639Z,79.3
2018-05-09T12:09:34.710Z,79.3
2018-05-09T12:10:26.564Z,79.3
2018-05-09T12:11:15.412Z,79.3
2018-05-09T12:12:05.441Z,79.4
2018-05-09T12:12:54.983Z,79.4
2018-05-09T12:13:45.603Z,79.4
2018-05-09T12:14:35.093Z,79.4
2018-05-09T12:15:25.448Z,79.5
2018-05-09T12:16:14.923Z,79.4
2018-05-09T12:17:05.824Z,79.5
2018-05-09T12:17:55.892Z,79.5
2018-05-09T12:18:45.720Z,79.5
2018-05-09T12:19:35.191Z,79.6
2018-05-09T12:20:25.632Z,79.6
2018-05-09T12:21:15.357Z,79.6
2018-05-09T12:22:05.998Z,79.6
2018-05-09T12:22:56.106Z,79.6
2018-05-09T12:23:45.603Z,79.6
2018-05-09T12:24:37.323Z,79.6
2018-05-09T12:25:25.910Z,79.6
2018-05-09T12:26:16.572Z,79.3
2018-05-09T12:27:06.131Z,79
2018-05-09T12:27:56.400Z,78.8
2018-05-09T12:28:46.764Z,78.8
2018-05-09T12:29:36.816Z,78.8
2018-05-09T12:30:26.890Z,78.8
2018-05-09T12:31:16.661Z,78.8
2018-05-09T12:32:06.727Z,78.8
2018-05-09T12:32:57.093Z,78.8
2018-05-09T12:33:47.151Z,78.8
2018-05-09T12:34:37.199Z,78.8
2018-05-09T12:35:26.670Z,78.8
2018-05-09T12:36:16.853Z,78.8
2018-05-09T12:37:07.400Z,78.8
2018-05-09T12:37:57.425Z,78.8
2018-05-09T12:38:47.294Z,78.8
2018-05-09T12:39:37.315Z,78.8
2018-05-09T12:40:27.661Z,78.8
2018-05-09T12:41:17.465Z,78.8
2018-05-09T12:42:07.828Z,78.9
2018-05-09T12:42:57.306Z,78.9
2018-05-09T12:43:47.651Z,78.9
2018-05-09T12:44:37.449Z,78.9
2018-05-09T12:45:27.764Z,78.9
2018-05-09T12:46:17.796Z,78.9
2018-05-09T12:47:08.146Z,78.9
2018-05-09T12:47:58.223Z,78.9
2018-05-09T12:48:50.219Z,78.9
2018-05-09T12:49:37.535Z,78.9
2018-05-09T12:50:28.214Z,78.9
2018-05-09T12:51:17.649Z,78.8
2018-05-09T12:52:08.034Z,78.9
2018-05-09T12:52:57.470Z,78.8
2018-05-09T12:53:48.724Z,78.8
2018-05-09T12:54:39.358Z,78.8
2018-05-09T12:55:28.784Z,78.8
2018-05-09T12:56:18.875Z,78.8
2018-05-09T12:57:08.916Z,78.8
2018-05-09T12:57:59.004Z,78.7
2018-05-09T12:58:48.801Z,78.7
2018-05-09T12:59:39.101Z,78.7
2018-05-09T13:00:30.081Z,78.7
2018-05-09T13:01:18.691Z,78.6
2018-05-09T13:02:08.784Z,78.6
2018-05-09T13:02:58.871Z,78.6
2018-05-09T13:03:48.915Z,78.6
2018-05-09T13:04:39.574Z,78.6
2018-05-09T13:05:29.593Z,78.5
2018-05-09T13:06:19.696Z,78.5
2018-05-09T13:07:09.367Z,78.4
2018-05-09T13:07:58.740Z,78.4
2018-05-09T13:08:49.603Z,78.4
2018-05-09T13:09:39.669Z,78.4
2018-05-09T13:10:30.004Z,78.3
2018-05-09T13:11:19.863Z,78.3
2018-05-09T13:12:09.538Z,78.3
2018-05-09T13:13:00.187Z,78.2